sensor_id;sensor_type;location;lat;lon;timestamp;pressure;altitude;pressure_sealevel;temperature;humidity
74329;BME280;62749;51.982;5.916;2022-12-11T00:02:09;101016.94;;;0.71;87.58
74329;BME280;62749;51.982;5.916;2022-12-11T00:04:39;101024.75;;;0.74;87.58
74329;BME280;62749;51.982;5.916;2022-12-11T00:07:08;101012.63;;;0.76;87.88
74329;BME280;62749;51.982;5.916;2022-12-11T00:09:40;101014.34;;;0.73;88.05
74329;BME280;62749;51.982;5.916;2022-12-11T00:12:10;101010.88;;;0.68;87.91
74329;BME280;62749;51.982;5.916;2022-12-11T00:14:39;101012.63;;;0.69;88.42
74329;BME280;62749;51.982;5.916;2022-12-11T00:17:09;101009.16;;;0.70;88.40
74329;BME280;62749;51.982;5.916;2022-12-11T00:19:39;101011.72;;;0.65;88.39
74329;BME280;62749;51.982;5.916;2022-12-11T00:22:08;101014.34;;;0.71;88.25
74329;BME280;62749;51.982;5.916;2022-12-11T00:24:40;101013.50;;;0.71;88.22
74329;BME280;62749;51.982;5.916;2022-12-11T00:27:10;101018.66;;;0.74;88.21
74329;BME280;62749;51.982;5.916;2022-12-11T00:29:39;101022.16;;;0.79;88.16
74329;BME280;62749;51.982;5.916;2022-12-11T00:32:08;101017.84;;;0.81;88.49
74329;BME280;62749;51.982;5.916;2022-12-11T00:34:38;101018.72;;;0.89;87.97
74329;BME280;62749;51.982;5.916;2022-12-11T00:37:07;101013.50;;;0.89;87.70
74329;BME280;62749;51.982;5.916;2022-12-11T00:39:40;101019.59;;;0.87;87.94
74329;BME280;62749;51.982;5.916;2022-12-11T00:42:09;101017.84;;;0.81;87.77
74329;BME280;62749;51.982;5.916;2022-12-11T00:44:39;101011.78;;;0.82;88.07
74329;BME280;62749;51.982;5.916;2022-12-11T00:47:09;101009.16;;;0.79;87.91
74329;BME280;62749;51.982;5.916;2022-12-11T00:49:38;101003.97;;;0.88;87.90
74329;BME280;62749;51.982;5.916;2022-12-11T00:52:07;101011.75;;;0.85;87.92
74329;BME280;62749;51.982;5.916;2022-12-11T00:54:37;101009.16;;;0.81;87.84
74329;BME280;62749;51.982;5.916;2022-12-11T00:57:08;101006.56;;;0.81;87.98
74329;BME280;62749;51.982;5.916;2022-12-11T00:59:38;101007.44;;;0.81;87.98
74329;BME280;62749;51.982;5.916;2022-12-11T01:02:07;101004.81;;;0.87;87.90
74329;BME280;62749;51.982;5.916;2022-12-11T01:04:37;100999.63;;;0.90;88.01
74329;BME280;62749;51.982;5.916;2022-12-11T01:07:06;101001.38;;;0.87;88.04
74329;BME280;62749;51.982;5.916;2022-12-11T01:09:35;101003.13;;;0.97;87.86
74329;BME280;62749;51.982;5.916;2022-12-11T01:12:20;101001.38;;;0.95;87.63
74329;BME280;62749;51.982;5.916;2022-12-11T01:14:50;100989.22;;;0.90;87.81
74329;BME280;62749;51.982;5.916;2022-12-11T01:17:19;100997.06;;;0.97;87.82
74329;BME280;62749;51.982;5.916;2022-12-11T01:19:49;100990.09;;;0.88;87.97
74329;BME280;62749;51.982;5.916;2022-12-11T01:22:18;100986.63;;;0.98;87.98
74329;BME280;62749;51.982;5.916;2022-12-11T01:24:48;100993.56;;;0.95;87.56
74329;BME280;62749;51.982;5.916;2022-12-11T01:27:20;100992.72;;;0.93;88.02
74329;BME280;62749;51.982;5.916;2022-12-11T01:29:50;100990.97;;;0.96;87.93
74329;BME280;62749;51.982;5.916;2022-12-11T01:32:19;100987.50;;;0.96;87.47
74329;BME280;62749;51.982;5.916;2022-12-11T01:34:48;100997.03;;;0.92;87.88
74329;BME280;62749;51.982;5.916;2022-12-11T01:37:18;100987.50;;;0.96;87.94
74329;BME280;62749;51.982;5.916;2022-12-11T01:39:47;100981.41;;;0.92;87.80
74329;BME280;62749;51.982;5.916;2022-12-11T01:42:21;100991.84;;;0.97;88.18
74329;BME280;62749;51.982;5.916;2022-12-11T01:47:58;100981.44;;;0.94;88.09
74329;BME280;62749;51.982;5.916;2022-12-11T01:50:32;100986.66;;;0.97;88.05
74329;BME280;62749;51.982;5.916;2022-12-11T01:53:06;100982.31;;;0.96;87.78
74329;BME280;62749;51.982;5.916;2022-12-11T01:55:38;100997.03;;;0.95;88.06
74329;BME280;62749;51.982;5.916;2022-12-11T01:58:12;100984.03;;;0.90;88.29
74329;BME280;62749;51.982;5.916;2022-12-11T02:00:42;100984.91;;;0.88;88.45
74329;BME280;62749;51.982;5.916;2022-12-11T02:03:12;100996.19;;;0.90;88.69
74329;BME280;62749;51.982;5.916;2022-12-11T02:05:41;100984.88;;;0.94;88.24
74329;BME280;62749;51.982;5.916;2022-12-11T02:08:11;100990.97;;;0.95;88.07
74329;BME280;62749;51.982;5.916;2022-12-11T02:10:59;100997.91;;;0.97;88.29
74329;BME280;62749;51.982;5.916;2022-12-11T02:13:43;100998.75;;;0.98;88.23
74329;BME280;62749;51.982;5.916;2022-12-11T02:16:20;100990.97;;;0.98;88.19
74329;BME280;62749;51.982;5.916;2022-12-11T02:19:02;100993.56;;;0.93;88.30
74329;BME280;62749;51.982;5.916;2022-12-11T02:21:40;100993.56;;;0.95;88.37
74329;BME280;62749;51.982;5.916;2022-12-11T02:24:28;100995.31;;;1.02;88.13
74329;BME280;62749;51.982;5.916;2022-12-11T02:27:18;100988.38;;;1.04;88.02
74329;BME280;62749;51.982;5.916;2022-12-11T02:30:09;100985.75;;;0.98;87.93
74329;BME280;62749;51.982;5.916;2022-12-11T02:32:46;100984.91;;;0.97;87.99
74329;BME280;62749;51.982;5.916;2022-12-11T02:35:20;100973.63;;;0.97;88.41
74329;BME280;62749;51.982;5.916;2022-12-11T02:37:56;100973.63;;;1.03;88.42
74329;BME280;62749;51.982;5.916;2022-12-11T02:40:31;100983.16;;;0.91;88.48
74329;BME280;62749;51.982;5.916;2022-12-11T02:43:07;100974.47;;;0.94;88.77
74329;BME280;62749;51.982;5.916;2022-12-11T02:45:41;100977.09;;;0.96;88.86
74329;BME280;62749;51.982;5.916;2022-12-11T02:48:14;100973.59;;;0.92;88.93
74329;BME280;62749;51.982;5.916;2022-12-11T02:50:47;100972.78;;;1.02;88.88
74329;BME280;62749;51.982;5.916;2022-12-11T02:53:23;100973.63;;;1.04;88.97
74329;BME280;62749;51.982;5.916;2022-12-11T02:56:02;100978.84;;;0.97;88.53
74329;BME280;62749;51.982;5.916;2022-12-11T02:58:41;100972.75;;;0.91;89.08
74329;BME280;62749;51.982;5.916;2022-12-11T03:01:16;100970.16;;;0.96;89.01
74329;BME280;62749;51.982;5.916;2022-12-11T03:03:46;100970.16;;;0.90;88.97
74329;BME280;62749;51.982;5.916;2022-12-11T03:06:21;100968.41;;;0.92;89.28
74329;BME280;62749;51.982;5.916;2022-12-11T03:08:53;100965.81;;;0.95;89.29
74329;BME280;62749;51.982;5.916;2022-12-11T03:11:22;100957.16;;;0.99;88.98
74329;BME280;62749;51.982;5.916;2022-12-11T03:13:53;100960.63;;;0.90;88.88
74329;BME280;62749;51.982;5.916;2022-12-11T03:16:33;100954.56;;;0.95;89.00
74329;BME280;62749;51.982;5.916;2022-12-11T03:19:12;100964.97;;;0.95;89.33
74329;BME280;62749;51.982;5.916;2022-12-11T03:21:49;100958.00;;;1.03;89.36
74329;BME280;62749;51.982;5.916;2022-12-11T03:24:27;100960.63;;;1.03;89.16
74329;BME280;62749;51.982;5.916;2022-12-11T03:27:06;100962.38;;;1.02;89.12
74329;BME280;62749;51.982;5.916;2022-12-11T03:29:44;100958.00;;;1.00;89.03
74329;BME280;62749;51.982;5.916;2022-12-11T03:32:23;100969.28;;;1.06;89.04
74329;BME280;62749;51.982;5.916;2022-12-11T03:34:59;100962.34;;;0.98;88.68
74329;BME280;62749;51.982;5.916;2022-12-11T03:37:35;100959.75;;;0.93;88.88
74329;BME280;62749;51.982;5.916;2022-12-11T03:40:12;100952.81;;;1.00;89.09
74329;BME280;62749;51.982;5.916;2022-12-11T03:42:45;100960.59;;;1.00;88.82
74329;BME280;62749;51.982;5.916;2022-12-11T03:45:19;100957.16;;;0.96;88.80
74329;BME280;62749;51.982;5.916;2022-12-11T03:47:56;100959.75;;;1.02;88.86
74329;BME280;62749;51.982;5.916;2022-12-11T03:50:30;100954.53;;;1.10;88.71
74329;BME280;62749;51.982;5.916;2022-12-11T03:53:02;100952.81;;;1.14;88.55
74329;BME280;62749;51.982;5.916;2022-12-11T03:55:36;100953.66;;;1.14;87.92
74329;BME280;62749;51.982;5.916;2022-12-11T03:58:06;100943.28;;;1.13;88.05
74329;BME280;62749;51.982;5.916;2022-12-11T04:00:36;100941.53;;;1.21;87.84
74329;BME280;62749;51.982;5.916;2022-12-11T04:03:11;100938.94;;;1.19;87.78
74329;BME280;62749;51.982;5.916;2022-12-11T04:05:43;100934.59;;;1.20;87.49
74329;BME280;62749;51.982;5.916;2022-12-11T04:08:15;100945.84;;;1.23;87.47
74329;BME280;62749;51.982;5.916;2022-12-11T04:10:46;100940.63;;;1.31;87.37
74329;BME280;62749;51.982;5.916;2022-12-11T04:13:37;100937.19;;;1.28;87.16
74329;BME280;62749;51.982;5.916;2022-12-11T04:16:07;100944.13;;;1.29;87.14
74329;BME280;62749;51.982;5.916;2022-12-11T04:18:36;100936.31;;;1.27;87.15
74329;BME280;62749;51.982;5.916;2022-12-11T04:21:18;100936.31;;;1.29;87.08
74329;BME280;62749;51.982;5.916;2022-12-11T04:24:00;100939.78;;;1.28;87.30
74329;BME280;62749;51.982;5.916;2022-12-11T04:26:43;100938.91;;;1.29;87.41
74329;BME280;62749;51.982;5.916;2022-12-11T04:29:13;100938.06;;;1.33;87.46
74329;BME280;62749;51.982;5.916;2022-12-11T04:31:43;100942.38;;;1.35;87.04
74329;BME280;62749;51.982;5.916;2022-12-11T04:34:15;100944.97;;;1.37;87.06
74329;BME280;62749;51.982;5.916;2022-12-11T04:36:45;100935.44;;;1.31;87.10
74329;BME280;62749;51.982;5.916;2022-12-11T04:39:14;100934.59;;;1.34;87.11
74329;BME280;62749;51.982;5.916;2022-12-11T04:41:44;100931.94;;;1.37;86.67
74329;BME280;62749;51.982;5.916;2022-12-11T04:44:13;100932.84;;;1.37;86.52
74329;BME280;62749;51.982;5.916;2022-12-11T04:46:42;100925.00;;;1.36;86.51
74329;BME280;62749;51.982;5.916;2022-12-11T04:49:15;100926.75;;;1.37;86.98
74329;BME280;62749;51.982;5.916;2022-12-11T04:51:44;100927.63;;;1.41;86.68
74329;BME280;62749;51.982;5.916;2022-12-11T04:54:14;100916.34;;;1.40;86.62
74329;BME280;62749;51.982;5.916;2022-12-11T04:56:43;100934.56;;;1.40;86.13
74329;BME280;62749;51.982;5.916;2022-12-11T04:59:13;100928.50;;;1.40;86.50
74329;BME280;62749;51.982;5.916;2022-12-11T05:01:42;100926.75;;;1.40;86.65
74329;BME280;62749;51.982;5.916;2022-12-11T05:04:14;100918.94;;;1.42;86.37
74329;BME280;62749;51.982;5.916;2022-12-11T05:06:44;100921.53;;;1.40;86.47
74329;BME280;62749;51.982;5.916;2022-12-11T05:09:13;100927.63;;;1.41;86.35
74329;BME280;62749;51.982;5.916;2022-12-11T05:11:43;100921.53;;;1.37;86.55
74329;BME280;62749;51.982;5.916;2022-12-11T05:14:12;100933.66;;;1.43;86.45
74329;BME280;62749;51.982;5.916;2022-12-11T05:16:42;100926.75;;;1.42;86.31
74329;BME280;62749;51.982;5.916;2022-12-11T05:19:11;100932.81;;;1.50;86.55
74329;BME280;62749;51.982;5.916;2022-12-11T05:21:43;100918.91;;;1.49;85.92
74329;BME280;62749;51.982;5.916;2022-12-11T05:24:13;100929.31;;;1.56;85.92
74329;BME280;62749;51.982;5.916;2022-12-11T05:26:42;100928.44;;;1.57;84.78
74329;BME280;62749;51.982;5.916;2022-12-11T05:29:12;100929.31;;;1.57;85.51
74329;BME280;62749;51.982;5.916;2022-12-11T05:31:41;100923.22;;;1.55;85.19
74329;BME280;62749;51.982;5.916;2022-12-11T05:34:11;100932.78;;;1.59;84.55
74329;BME280;62749;51.982;5.916;2022-12-11T05:36:43;100916.34;;;1.43;83.42
74329;BME280;62749;51.982;5.916;2022-12-11T05:39:12;100924.13;;;1.48;83.98
74329;BME280;62749;51.982;5.916;2022-12-11T05:41:42;100919.81;;;1.48;84.12
74329;BME280;62749;51.982;5.916;2022-12-11T05:44:12;100918.06;;;1.47;84.62
74329;BME280;62749;51.982;5.916;2022-12-11T05:46:41;100918.06;;;1.41;84.32
74329;BME280;62749;51.982;5.916;2022-12-11T05:49:11;100918.06;;;1.41;84.57
74329;BME280;62749;51.982;5.916;2022-12-11T05:51:43;100915.47;;;1.47;84.76
74329;BME280;62749;51.982;5.916;2022-12-11T05:54:13;100907.63;;;1.49;83.89
74329;BME280;62749;51.982;5.916;2022-12-11T05:56:42;100920.63;;;1.55;83.57
74329;BME280;62749;51.982;5.916;2022-12-11T05:59:11;100911.94;;;1.59;83.63
74329;BME280;62749;51.982;5.916;2022-12-11T06:01:42;100914.56;;;1.51;83.07
74329;BME280;62749;51.982;5.916;2022-12-11T06:04:12;100907.66;;;1.44;83.77
74329;BME280;62749;51.982;5.916;2022-12-11T06:06:44;100904.19;;;1.45;84.25
74329;BME280;62749;51.982;5.916;2022-12-11T06:09:15;100907.66;;;1.41;83.77
74329;BME280;62749;51.982;5.916;2022-12-11T06:11:45;100898.97;;;1.36;84.76
74329;BME280;62749;51.982;5.916;2022-12-11T06:14:14;100894.63;;;1.41;85.03
74329;BME280;62749;51.982;5.916;2022-12-11T06:16:43;100906.78;;;1.47;84.60
74329;BME280;62749;51.982;5.916;2022-12-11T06:19:14;100894.63;;;1.47;84.59
74329;BME280;62749;51.982;5.916;2022-12-11T06:21:46;100893.75;;;1.45;84.34
74329;BME280;62749;51.982;5.916;2022-12-11T06:24:16;100898.09;;;1.51;83.75
74329;BME280;62749;51.982;5.916;2022-12-11T06:26:45;100898.06;;;1.59;83.10
74329;BME280;62749;51.982;5.916;2022-12-11T06:29:15;100896.31;;;1.59;82.99
74329;BME280;62749;51.982;5.916;2022-12-11T06:31:44;100898.06;;;1.60;82.89
74329;BME280;62749;51.982;5.916;2022-12-11T06:34:36;100904.13;;;1.56;83.36
74329;BME280;62749;51.982;5.916;2022-12-11T06:37:08;100911.06;;;1.62;82.73
74329;BME280;62749;51.982;5.916;2022-12-11T06:39:38;100903.28;;;1.54;83.07
74329;BME280;62749;51.982;5.916;2022-12-11T06:42:07;100906.75;;;1.58;83.46
74329;BME280;62749;51.982;5.916;2022-12-11T06:44:36;100909.34;;;1.59;82.46
74329;BME280;62749;51.982;5.916;2022-12-11T06:47:06;100903.28;;;1.51;82.48
74329;BME280;62749;51.982;5.916;2022-12-11T06:49:35;100911.94;;;1.56;82.02
74329;BME280;62749;51.982;5.916;2022-12-11T06:52:04;100913.72;;;1.48;81.22
74329;BME280;62749;51.982;5.916;2022-12-11T06:54:37;100917.22;;;1.31;81.37
74329;BME280;62749;51.982;5.916;2022-12-11T06:57:07;100911.16;;;1.34;81.11
74329;BME280;62749;51.982;5.916;2022-12-11T06:59:37;100924.16;;;1.35;81.27
74329;BME280;62749;51.982;5.916;2022-12-11T07:02:10;100920.66;;;1.38;80.98
74329;BME280;62749;51.982;5.916;2022-12-11T07:07:40;100933.69;;;1.33;81.48
74329;BME280;62749;51.982;5.916;2022-12-11T07:10:12;100926.75;;;1.37;81.69
74329;BME280;62749;51.982;5.916;2022-12-11T07:12:41;100931.09;;;1.40;81.94
74329;BME280;62749;51.982;5.916;2022-12-11T07:15:11;100927.63;;;1.41;82.49
74329;BME280;62749;51.982;5.916;2022-12-11T07:17:41;100939.78;;;1.38;82.85
74329;BME280;62749;51.982;5.916;2022-12-11T07:20:11;100931.94;;;1.37;82.73
74329;BME280;62749;51.982;5.916;2022-12-11T07:22:40;100936.28;;;1.38;83.03
74329;BME280;62749;51.982;5.916;2022-12-11T07:25:12;100928.50;;;1.36;82.55
74329;BME280;62749;51.982;5.916;2022-12-11T07:27:41;100940.63;;;1.23;82.79
74329;BME280;62749;51.982;5.916;2022-12-11T07:30:12;100933.72;;;1.21;83.20
74329;BME280;62749;51.982;5.916;2022-12-11T07:32:41;100934.59;;;1.20;83.45
74329;BME280;62749;51.982;5.916;2022-12-11T07:35:13;100940.66;;;1.17;82.93
74329;BME280;62749;51.982;5.916;2022-12-11T07:37:42;100936.31;;;1.26;82.50
74329;BME280;62749;51.982;5.916;2022-12-11T07:40:14;100938.94;;;1.24;81.30
74329;BME280;62749;51.982;5.916;2022-12-11T07:42:44;100943.25;;;1.22;80.50
74329;BME280;62749;51.982;5.916;2022-12-11T07:45:13;100936.31;;;1.24;81.17
74329;BME280;62749;51.982;5.916;2022-12-11T07:47:43;100940.66;;;1.28;81.02
74329;BME280;62749;51.982;5.916;2022-12-11T07:50:12;100936.34;;;1.19;80.79
74329;BME280;62749;51.982;5.916;2022-12-11T07:52:41;100931.97;;;1.25;80.79
74329;BME280;62749;51.982;5.916;2022-12-11T07:55:13;100931.97;;;1.26;80.54
74329;BME280;62749;51.982;5.916;2022-12-11T07:57:43;100934.56;;;1.31;80.24
74329;BME280;62749;51.982;5.916;2022-12-11T08:00:13;100941.50;;;1.29;79.95
74329;BME280;62749;51.982;5.916;2022-12-11T08:02:42;100945.00;;;1.26;80.51
74329;BME280;62749;51.982;5.916;2022-12-11T08:05:24;100950.19;;;1.31;79.38
74329;BME280;62749;51.982;5.916;2022-12-11T08:07:53;100953.69;;;1.20;79.03
74329;BME280;62749;51.982;5.916;2022-12-11T08:10:25;100951.06;;;1.25;78.84
74329;BME280;62749;51.982;5.916;2022-12-11T08:12:55;100951.94;;;1.32;79.18
74329;BME280;62749;51.982;5.916;2022-12-11T08:15:24;100954.56;;;1.19;79.85
74329;BME280;62749;51.982;5.916;2022-12-11T08:17:53;100961.47;;;1.30;79.78
74329;BME280;62749;51.982;5.916;2022-12-11T08:20:23;100954.56;;;1.19;80.01
74329;BME280;62749;51.982;5.916;2022-12-11T08:22:52;100951.09;;;1.05;80.61
74329;BME280;62749;51.982;5.916;2022-12-11T08:25:25;100954.53;;;1.10;79.65
74329;BME280;62749;51.982;5.916;2022-12-11T08:27:54;100946.75;;;1.19;80.63
74329;BME280;62749;51.982;5.916;2022-12-11T08:30:23;100952.78;;;1.28;79.69
74329;BME280;62749;51.982;5.916;2022-12-11T08:32:53;100953.66;;;1.36;80.03
74329;BME280;62749;51.982;5.916;2022-12-11T08:35:22;100951.03;;;1.36;79.59
74329;BME280;62749;51.982;5.916;2022-12-11T08:37:52;100952.78;;;1.38;80.24
74329;BME280;62749;51.982;5.916;2022-12-11T08:40:21;100950.19;;;1.35;80.49
74329;BME280;62749;51.982;5.916;2022-12-11T08:42:53;100953.66;;;1.48;80.65
74329;BME280;62749;51.982;5.916;2022-12-11T08:45:22;100946.72;;;1.44;79.34
74329;BME280;62749;51.982;5.916;2022-12-11T08:47:52;100942.38;;;1.38;79.08
74329;BME280;62749;51.982;5.916;2022-12-11T08:50:22;100945.00;;;1.34;79.58
74329;BME280;62749;51.982;5.916;2022-12-11T08:52:51;100939.78;;;1.34;80.50
74329;BME280;62749;51.982;5.916;2022-12-11T08:55:21;100926.75;;;1.40;79.90
74329;BME280;62749;51.982;5.916;2022-12-11T08:57:53;100944.97;;;1.29;79.38
74329;BME280;62749;51.982;5.916;2022-12-11T09:00:22;100934.59;;;1.18;79.38
74329;BME280;62749;51.982;5.916;2022-12-11T09:02:52;100937.19;;;1.20;79.12
74329;BME280;62749;51.982;5.916;2022-12-11T09:05:21;100935.47;;;1.25;79.18
74329;BME280;62749;51.982;5.916;2022-12-11T09:07:51;100936.31;;;1.32;79.41
74329;BME280;62749;51.982;5.916;2022-12-11T09:10:20;100938.91;;;1.29;79.69
74329;BME280;62749;51.982;5.916;2022-12-11T09:12:49;100944.97;;;1.38;79.99
74329;BME280;62749;51.982;5.916;2022-12-11T09:15:21;100938.88;;;1.38;79.31
74329;BME280;62749;51.982;5.916;2022-12-11T09:17:51;100934.56;;;1.43;79.04
74329;BME280;62749;51.982;5.916;2022-12-11T09:20:21;100927.63;;;1.41;79.39
74329;BME280;62749;51.982;5.916;2022-12-11T09:22:50;100929.34;;;1.48;78.84
74329;BME280;62749;51.982;5.916;2022-12-11T09:25:19;100935.41;;;1.39;79.06
74329;BME280;62749;51.982;5.916;2022-12-11T09:27:49;100930.22;;;1.36;79.28
74329;BME280;62749;51.982;5.916;2022-12-11T09:30:21;100926.75;;;1.43;79.11
74329;BME280;62749;51.982;5.916;2022-12-11T09:32:50;100927.63;;;1.45;78.64
74329;BME280;62749;51.982;5.916;2022-12-11T09:35:20;100927.63;;;1.37;79.33
74329;BME280;62749;51.982;5.916;2022-12-11T09:37:49;100931.06;;;1.43;79.60
74329;BME280;62749;51.982;5.916;2022-12-11T09:40:18;100927.63;;;1.45;79.97
74329;BME280;62749;51.982;5.916;2022-12-11T09:42:53;100936.28;;;1.49;79.32
74329;BME280;62749;51.982;5.916;2022-12-11T09:45:29;100934.53;;;1.49;79.01
74329;BME280;62749;51.982;5.916;2022-12-11T09:47:59;100930.19;;;1.50;79.90
74329;BME280;62749;51.982;5.916;2022-12-11T09:50:31;100930.16;;;1.56;79.56
74329;BME280;62749;51.982;5.916;2022-12-11T09:53:10;100922.34;;;1.64;77.92
74329;BME280;62749;51.982;5.916;2022-12-11T09:55:50;100923.25;;;1.57;79.29
74329;BME280;62749;51.982;5.916;2022-12-11T09:58:29;100921.47;;;1.65;78.15
74329;BME280;62749;51.982;5.916;2022-12-11T10:01:11;100918.88;;;1.71;77.61
74329;BME280;62749;51.982;5.916;2022-12-11T10:04:04;100912.81;;;1.60;78.46
74329;BME280;62749;51.982;5.916;2022-12-11T10:06:46;100916.28;;;1.63;78.48
74329;BME280;62749;51.982;5.916;2022-12-11T10:09:34;100918.00;;;1.66;78.81
74329;BME280;62749;51.982;5.916;2022-12-11T10:12:22;100913.66;;;1.62;79.08
74329;BME280;62749;51.982;5.916;2022-12-11T10:15:12;100913.66;;;1.71;77.83
74329;BME280;62749;51.982;5.916;2022-12-11T10:17:46;100917.13;;;1.73;78.17
74329;BME280;62749;51.982;5.916;2022-12-11T10:20:22;100912.81;;;1.67;78.06
74329;BME280;62749;51.982;5.916;2022-12-11T10:22:54;100910.16;;;1.74;78.05
74329;BME280;62749;51.982;5.916;2022-12-11T10:25:28;100909.31;;;1.70;77.04
74329;BME280;62749;51.982;5.916;2022-12-11T10:28:07;100910.19;;;1.69;77.84
74329;BME280;62749;51.982;5.916;2022-12-11T10:30:42;100906.66;;;1.76;77.88
74329;BME280;62749;51.982;5.916;2022-12-11T10:33:22;100911.84;;;1.81;76.83
74329;BME280;62749;51.982;5.916;2022-12-11T10:39:13;100909.22;;;1.89;76.72
74329;BME280;62749;51.982;5.916;2022-12-11T10:41:45;100902.31;;;1.84;76.52
74329;BME280;62749;51.982;5.916;2022-12-11T10:44:17;100899.69;;;1.89;76.92
74329;BME280;62749;51.982;5.916;2022-12-11T10:47:00;100891.00;;;1.84;77.75
74329;BME280;62749;51.982;5.916;2022-12-11T10:49:35;100896.25;;;1.78;77.69
74329;BME280;62749;51.982;5.916;2022-12-11T10:52:21;100901.44;;;1.87;77.60
74329;BME280;62749;51.982;5.916;2022-12-11T10:54:59;100895.38;;;1.83;77.08
74329;BME280;62749;51.982;5.916;2022-12-11T10:57:33;100896.25;;;1.82;77.91
74329;BME280;62749;51.982;5.916;2022-12-11T11:00:05;100892.78;;;1.79;77.78
74329;BME280;62749;51.982;5.916;2022-12-11T11:02:37;100898.84;;;1.84;78.21
74329;BME280;62749;51.982;5.916;2022-12-11T11:05:24;100898.84;;;1.82;78.38
74329;BME280;62749;51.982;5.916;2022-12-11T11:08:03;100900.53;;;1.96;77.47
74329;BME280;62749;51.982;5.916;2022-12-11T11:10:33;100880.56;;;1.89;76.99
74329;BME280;62749;51.982;5.916;2022-12-11T11:13:02;100886.66;;;1.92;76.82
74329;BME280;62749;51.982;5.916;2022-12-11T11:15:32;100886.66;;;1.83;77.76
74329;BME280;62749;51.982;5.916;2022-12-11T11:18:10;100858.09;;;1.69;77.84
74329;BME280;62749;51.982;5.916;2022-12-11T11:20:47;100887.56;;;1.80;78.22
74329;BME280;62749;51.982;5.916;2022-12-11T11:23:18;100884.09;;;1.80;78.36
74329;BME280;62749;51.982;5.916;2022-12-11T11:25:51;100885.84;;;1.76;78.35
74329;BME280;62749;51.982;5.916;2022-12-11T11:28:24;100873.69;;;1.80;78.07
74329;BME280;62749;51.982;5.916;2022-12-11T11:30:58;100878.88;;;1.78;78.36
74329;BME280;62749;51.982;5.916;2022-12-11T11:33:31;100885.81;;;1.81;77.95
74329;BME280;62749;51.982;5.916;2022-12-11T11:36:17;100877.16;;;1.79;78.22
74329;BME280;62749;51.982;5.916;2022-12-11T11:39:02;100884.09;;;1.78;78.48
74329;BME280;62749;51.982;5.916;2022-12-11T11:41:39;100878.88;;;1.75;78.46
74329;BME280;62749;51.982;5.916;2022-12-11T11:44:18;100880.63;;;1.78;78.42
74329;BME280;62749;51.982;5.916;2022-12-11T11:46:57;100871.97;;;1.76;78.09
74329;BME280;62749;51.982;5.916;2022-12-11T11:49:49;100877.16;;;1.76;78.64
74329;BME280;62749;51.982;5.916;2022-12-11T11:52:30;100874.56;;;1.76;78.55
74329;BME280;62749;51.982;5.916;2022-12-11T11:55:08;100861.50;;;1.77;78.64
74329;BME280;62749;51.982;5.916;2022-12-11T11:57:46;100865.84;;;1.75;78.94
74329;BME280;62749;51.982;5.916;2022-12-11T12:00:37;100854.56;;;1.79;78.58
74329;BME280;62749;51.982;5.916;2022-12-11T12:03:10;100852.84;;;1.80;78.88
74329;BME280;62749;51.982;5.916;2022-12-11T12:05:48;100851.94;;;1.82;78.66
74329;BME280;62749;51.982;5.916;2022-12-11T12:08:40;100851.97;;;1.79;77.37
74329;BME280;62749;51.982;5.916;2022-12-11T12:11:21;100857.19;;;1.76;78.39
74329;BME280;62749;51.982;5.916;2022-12-11T12:14:04;100852.78;;;1.86;77.97
74329;BME280;62749;51.982;5.916;2022-12-11T12:16:44;100853.69;;;1.87;78.30
74329;BME280;62749;51.982;5.916;2022-12-11T12:19:45;100850.13;;;1.95;77.76
74329;BME280;62749;51.982;5.916;2022-12-11T12:22:27;100843.25;;;1.87;77.87
74329;BME280;62749;51.982;5.916;2022-12-11T12:25:15;100841.53;;;1.79;78.57
74329;BME280;62749;51.982;5.916;2022-12-11T12:27:55;100838.13;;;1.74;79.16
74329;BME280;62749;51.982;5.916;2022-12-11T12:30:37;100842.47;;;1.72;78.50
74329;BME280;62749;51.982;5.916;2022-12-11T12:33:20;100842.44;;;1.74;79.18
74329;BME280;62749;51.982;5.916;2022-12-11T12:36:19;100839.81;;;1.77;79.04
74329;BME280;62749;51.982;5.916;2022-12-11T12:38:57;100847.63;;;1.80;79.13
74329;BME280;62749;51.982;5.916;2022-12-11T12:41:43;100843.31;;;1.76;79.09
74329;BME280;62749;51.982;5.916;2022-12-11T12:44:18;100849.34;;;1.81;78.94
74329;BME280;62749;51.982;5.916;2022-12-11T12:46:57;100838.94;;;1.82;78.21
74329;BME280;62749;51.982;5.916;2022-12-11T12:49:38;100840.69;;;1.76;79.46
74329;BME280;62749;51.982;5.916;2022-12-11T12:52:14;100844.19;;;1.70;79.22
74329;BME280;62749;51.982;5.916;2022-12-11T12:54:47;100845.06;;;1.69;79.31
74329;BME280;62749;51.982;5.916;2022-12-11T12:57:36;100856.34;;;1.73;79.87
74329;BME280;62749;51.982;5.916;2022-12-11T13:00:08;100841.59;;;1.67;79.52
74329;BME280;62749;51.982;5.916;2022-12-11T13:02:47;100845.03;;;1.75;79.12
74329;BME280;62749;51.982;5.916;2022-12-11T13:05:22;100840.69;;;1.73;79.18
74329;BME280;62749;51.982;5.916;2022-12-11T13:07:55;100844.16;;;1.78;79.46
74329;BME280;62749;51.982;5.916;2022-12-11T13:10:31;100841.56;;;1.78;79.24
74329;BME280;62749;51.982;5.916;2022-12-11T13:16:24;100838.97;;;1.68;79.22
74329;BME280;62749;51.982;5.916;2022-12-11T13:18:54;100845.91;;;1.73;79.19
74329;BME280;62749;51.982;5.916;2022-12-11T13:21:30;100844.22;;;1.65;79.68
74329;BME280;62749;51.982;5.916;2022-12-11T13:24:15;100845.06;;;1.63;79.67
74329;BME280;62749;51.982;5.916;2022-12-11T13:26:46;100832.94;;;1.62;79.56
74329;BME280;62749;51.982;5.916;2022-12-11T13:29:31;100837.28;;;1.61;79.95
74329;BME280;62749;51.982;5.916;2022-12-11T13:32:21;100852.00;;;1.67;79.84
74329;BME280;62749;51.982;5.916;2022-12-11T13:34:55;100839.00;;;1.65;79.49
74329;BME280;62749;51.982;5.916;2022-12-11T13:37:29;100842.47;;;1.67;79.65
74329;BME280;62749;51.982;5.916;2022-12-11T13:40:04;100845.06;;;1.66;79.77
74329;BME280;62749;51.982;5.916;2022-12-11T13:42:43;100849.34;;;1.76;79.24
74329;BME280;62749;51.982;5.916;2022-12-11T13:45:25;100846.78;;;1.68;80.18
74329;BME280;62749;51.982;5.916;2022-12-11T13:47:59;100857.19;;;1.76;80.21